Strona główna
METAR-TAF:

METAR-TAF

Lotnisko :

Le Touquet, Francja

Szerokość geograficzna: 50-30-53N, Długość geograficzna: 001-37-39E, wysokość: 6 m

Aktualna obserwacja pogody

Raport powstał 14 minut temu, godzina 22:00 UTC
Wiatr 3 kt od południowy zachód
Temperatura 11°C
Wilgotność 87%
Ciśnienie 1001 hPa
Widzialność 10 km lub więcej

METAR: LFAT 042200Z AUTO 23003KT 9999 FEW024/// BKN037/// OVC052/// ///TCU 11/09 Q1001

czas: 00:14 (22:14 UTC)


TAF: brakujący

Obserwacja i prognoza pogody dla ponad 4000 lotnisk (raport METAR i TAF).

Dostępne stacje oznaczono żółtymi i czerwonymi punktami na mapie.

Najedź kursorem aby zobaczyć nazwę stacji.

Kliknij aby zobaczyć obserwacje i prognozy pogody.

Aby zmienić mapę: kliknij na zielony przycisk z czarnym krzyżykiem, aby powiększyć; na zielony przycisk z myślnikiem, aby pomniejszyć; na zielone strzałki, aby przejść do map sąsiednich.


METAR-TAF: